sensor_id;sensor_type;location;lat;lon;timestamp;P1;durP1;ratioP1;P2;durP2;ratioP2
12437;SDS011;6283;51.330;12.374;2023-03-14T00:01:29;1.33;;;0.80;;
12437;SDS011;6283;51.330;12.374;2023-03-14T00:03:54;1.90;;;1.20;;
12437;SDS011;6283;51.330;12.374;2023-03-14T00:06:20;1.43;;;1.00;;
12437;SDS011;6283;51.330;12.374;2023-03-14T00:08:47;1.43;;;0.97;;
12437;SDS011;6283;51.330;12.374;2023-03-14T00:11:13;0.70;;;0.70;;
12437;SDS011;6283;51.330;12.374;2023-03-14T00:13:41;0.90;;;0.90;;
12437;SDS011;6283;51.330;12.374;2023-03-14T00:16:13;0.90;;;0.90;;
12437;SDS011;6283;51.330;12.374;2023-03-14T00:18:39;1.37;;;0.90;;
12437;SDS011;6283;51.330;12.374;2023-03-14T00:21:05;1.00;;;0.90;;
12437;SDS011;6283;51.330;12.374;2023-03-14T00:23:32;0.70;;;0.70;;
12437;SDS011;6283;51.330;12.374;2023-03-14T00:25:59;1.10;;;1.10;;
12437;SDS011;6283;51.330;12.374;2023-03-14T00:28:30;1.10;;;1.00;;
12437;SDS011;6283;51.330;12.374;2023-03-14T00:30:55;0.83;;;0.83;;
12437;SDS011;6283;51.330;12.374;2023-03-14T00:33:21;1.00;;;1.00;;
12437;SDS011;6283;51.330;12.374;2023-03-14T00:35:57;1.27;;;1.20;;
12437;SDS011;6283;51.330;12.374;2023-03-14T00:38:29;1.33;;;1.23;;
12437;SDS011;6283;51.330;12.374;2023-03-14T00:40:55;0.90;;;0.90;;
12437;SDS011;6283;51.330;12.374;2023-03-14T00:43:21;2.33;;;0.90;;
12437;SDS011;6283;51.330;12.374;2023-03-14T00:45:50;2.53;;;0.90;;
12437;SDS011;6283;51.330;12.374;2023-03-14T00:48:17;1.30;;;0.87;;
12437;SDS011;6283;51.330;12.374;2023-03-14T00:50:44;0.80;;;0.70;;
12437;SDS011;6283;51.330;12.374;2023-03-14T00:53:11;1.03;;;0.80;;
12437;SDS011;6283;51.330;12.374;2023-03-14T00:55:37;0.80;;;0.80;;
12437;SDS011;6283;51.330;12.374;2023-03-14T00:58:07;1.60;;;0.90;;
12437;SDS011;6283;51.330;12.374;2023-03-14T01:00:33;0.70;;;0.70;;
12437;SDS011;6283;51.330;12.374;2023-03-14T01:03:00;2.37;;;0.80;;
12437;SDS011;6283;51.330;12.374;2023-03-14T01:05:26;1.80;;;1.00;;
12437;SDS011;6283;51.330;12.374;2023-03-14T01:07:52;1.07;;;0.70;;
12437;SDS011;6283;51.330;12.374;2023-03-14T01:10:17;0.80;;;0.80;;
12437;SDS011;6283;51.330;12.374;2023-03-14T01:12:43;0.93;;;0.67;;
12437;SDS011;6283;51.330;12.374;2023-03-14T01:15:09;1.03;;;0.90;;
12437;SDS011;6283;51.330;12.374;2023-03-14T01:17:35;1.10;;;1.00;;
12437;SDS011;6283;51.330;12.374;2023-03-14T01:20:03;0.60;;;0.60;;
12437;SDS011;6283;51.330;12.374;2023-03-14T01:22:29;0.60;;;0.60;;
12437;SDS011;6283;51.330;12.374;2023-03-14T01:24:55;0.87;;;0.73;;
12437;SDS011;6283;51.330;12.374;2023-03-14T01:27:21;0.50;;;0.50;;
12437;SDS011;6283;51.330;12.374;2023-03-14T01:29:47;0.67;;;0.50;;
12437;SDS011;6283;51.330;12.374;2023-03-14T01:32:13;1.73;;;0.93;;
12437;SDS011;6283;51.330;12.374;2023-03-14T01:34:38;0.77;;;0.70;;
12437;SDS011;6283;51.330;12.374;2023-03-14T01:37:04;0.70;;;0.70;;
12437;SDS011;6283;51.330;12.374;2023-03-14T01:39:30;0.80;;;0.67;;
12437;SDS011;6283;51.330;12.374;2023-03-14T01:41:56;1.40;;;0.80;;
12437;SDS011;6283;51.330;12.374;2023-03-14T01:44:21;0.60;;;0.60;;
12437;SDS011;6283;51.330;12.374;2023-03-14T01:46:47;0.90;;;0.80;;
12437;SDS011;6283;51.330;12.374;2023-03-14T01:54:32;2.27;;;0.70;;
12437;SDS011;6283;51.330;12.374;2023-03-14T01:57:10;0.60;;;0.60;;
12437;SDS011;6283;51.330;12.374;2023-03-14T01:59:43;1.00;;;0.70;;
12437;SDS011;6283;51.330;12.374;2023-03-14T02:02:13;0.80;;;0.80;;
12437;SDS011;6283;51.330;12.374;2023-03-14T02:04:40;0.60;;;0.60;;
12437;SDS011;6283;51.330;12.374;2023-03-14T02:07:16;1.30;;;1.00;;
12437;SDS011;6283;51.330;12.374;2023-03-14T02:09:47;0.50;;;0.50;;
12437;SDS011;6283;51.330;12.374;2023-03-14T02:12:14;0.93;;;0.70;;
12437;SDS011;6283;51.330;12.374;2023-03-14T02:14:41;0.70;;;0.70;;
12437;SDS011;6283;51.330;12.374;2023-03-14T02:17:12;0.57;;;0.57;;
12437;SDS011;6283;51.330;12.374;2023-03-14T02:19:47;0.53;;;0.53;;
12437;SDS011;6283;51.330;12.374;2023-03-14T02:22:24;1.27;;;1.00;;
12437;SDS011;6283;51.330;12.374;2023-03-14T02:27:34;0.63;;;0.50;;
12437;SDS011;6283;51.330;12.374;2023-03-14T02:32:37;1.20;;;0.60;;
12437;SDS011;6283;51.330;12.374;2023-03-14T02:35:06;1.60;;;0.67;;
12437;SDS011;6283;51.330;12.374;2023-03-14T02:37:37;0.60;;;0.60;;
12437;SDS011;6283;51.330;12.374;2023-03-14T02:40:06;0.57;;;0.57;;
12437;SDS011;6283;51.330;12.374;2023-03-14T02:42:32;0.60;;;0.60;;
12437;SDS011;6283;51.330;12.374;2023-03-14T02:45:25;0.50;;;0.50;;
12437;SDS011;6283;51.330;12.374;2023-03-14T02:47:49;1.00;;;0.57;;
12437;SDS011;6283;51.330;12.374;2023-03-14T02:50:20;0.53;;;0.50;;
12437;SDS011;6283;51.330;12.374;2023-03-14T02:52:49;0.57;;;0.57;;
12437;SDS011;6283;51.330;12.374;2023-03-14T02:55:19;0.63;;;0.63;;
12437;SDS011;6283;51.330;12.374;2023-03-14T02:57:48;0.70;;;0.70;;
12437;SDS011;6283;51.330;12.374;2023-03-14T03:00:14;0.60;;;0.57;;
12437;SDS011;6283;51.330;12.374;2023-03-14T03:02:40;0.60;;;0.60;;
12437;SDS011;6283;51.330;12.374;2023-03-14T03:05:06;1.23;;;0.47;;
12437;SDS011;6283;51.330;12.374;2023-03-14T03:07:32;0.53;;;0.53;;
12437;SDS011;6283;51.330;12.374;2023-03-14T03:09:58;0.87;;;0.80;;
12437;SDS011;6283;51.330;12.374;2023-03-14T03:12:23;0.50;;;0.50;;
12437;SDS011;6283;51.330;12.374;2023-03-14T03:14:49;0.67;;;0.60;;
12437;SDS011;6283;51.330;12.374;2023-03-14T03:17:14;0.50;;;0.50;;
12437;SDS011;6283;51.330;12.374;2023-03-14T03:19:40;0.50;;;0.50;;
12437;SDS011;6283;51.330;12.374;2023-03-14T03:22:06;0.60;;;0.60;;
12437;SDS011;6283;51.330;12.374;2023-03-14T03:24:32;1.77;;;1.10;;
12437;SDS011;6283;51.330;12.374;2023-03-14T03:26:58;0.63;;;0.60;;
12437;SDS011;6283;51.330;12.374;2023-03-14T03:29:23;0.50;;;0.50;;
12437;SDS011;6283;51.330;12.374;2023-03-14T03:31:49;2.10;;;0.60;;
12437;SDS011;6283;51.330;12.374;2023-03-14T03:34:15;1.97;;;0.70;;
12437;SDS011;6283;51.330;12.374;2023-03-14T03:36:40;0.83;;;0.67;;
12437;SDS011;6283;51.330;12.374;2023-03-14T03:39:06;0.90;;;0.70;;
12437;SDS011;6283;51.330;12.374;2023-03-14T03:41:32;0.67;;;0.60;;
12437;SDS011;6283;51.330;12.374;2023-03-14T03:43:58;4.00;;;0.90;;
12437;SDS011;6283;51.330;12.374;2023-03-14T03:46:24;1.60;;;0.60;;
12437;SDS011;6283;51.330;12.374;2023-03-14T03:48:56;1.00;;;0.77;;
12437;SDS011;6283;51.330;12.374;2023-03-14T03:51:23;1.50;;;0.80;;
12437;SDS011;6283;51.330;12.374;2023-03-14T03:53:49;0.97;;;0.73;;
12437;SDS011;6283;51.330;12.374;2023-03-14T03:56:15;0.80;;;0.60;;
12437;SDS011;6283;51.330;12.374;2023-03-14T03:58:41;1.87;;;0.60;;
12437;SDS011;6283;51.330;12.374;2023-03-14T04:01:07;0.83;;;0.60;;
12437;SDS011;6283;51.330;12.374;2023-03-14T04:03:35;0.60;;;0.60;;
12437;SDS011;6283;51.330;12.374;2023-03-14T04:06:11;0.60;;;0.60;;
12437;SDS011;6283;51.330;12.374;2023-03-14T04:08:38;3.07;;;0.57;;
12437;SDS011;6283;51.330;12.374;2023-03-14T04:11:05;0.50;;;0.50;;
12437;SDS011;6283;51.330;12.374;2023-03-14T04:13:31;4.33;;;1.00;;
12437;SDS011;6283;51.330;12.374;2023-03-14T04:15:56;1.70;;;0.80;;
12437;SDS011;6283;51.330;12.374;2023-03-14T04:18:22;2.27;;;0.97;;
12437;SDS011;6283;51.330;12.374;2023-03-14T04:20:51;2.03;;;0.67;;
12437;SDS011;6283;51.330;12.374;2023-03-14T04:23:22;2.40;;;0.70;;
12437;SDS011;6283;51.330;12.374;2023-03-14T04:25:51;1.43;;;0.70;;
12437;SDS011;6283;51.330;12.374;2023-03-14T04:28:18;2.57;;;0.90;;
12437;SDS011;6283;51.330;12.374;2023-03-14T04:30:44;1.40;;;0.80;;
12437;SDS011;6283;51.330;12.374;2023-03-14T04:33:09;1.17;;;0.77;;
12437;SDS011;6283;51.330;12.374;2023-03-14T04:35:37;1.13;;;0.80;;
12437;SDS011;6283;51.330;12.374;2023-03-14T04:38:03;0.83;;;0.80;;
12437;SDS011;6283;51.330;12.374;2023-03-14T04:40:28;1.73;;;0.90;;
12437;SDS011;6283;51.330;12.374;2023-03-14T04:42:54;1.23;;;0.80;;
12437;SDS011;6283;51.330;12.374;2023-03-14T04:45:19;0.90;;;0.67;;
12437;SDS011;6283;51.330;12.374;2023-03-14T04:47:45;2.37;;;0.70;;
12437;SDS011;6283;51.330;12.374;2023-03-14T04:50:11;1.57;;;0.80;;
12437;SDS011;6283;51.330;12.374;2023-03-14T04:52:36;1.37;;;0.97;;
12437;SDS011;6283;51.330;12.374;2023-03-14T04:55:02;0.67;;;0.67;;
12437;SDS011;6283;51.330;12.374;2023-03-14T04:57:28;1.50;;;0.70;;
12437;SDS011;6283;51.330;12.374;2023-03-14T04:59:53;1.70;;;0.77;;
12437;SDS011;6283;51.330;12.374;2023-03-14T05:02:19;0.77;;;0.77;;
12437;SDS011;6283;51.330;12.374;2023-03-14T05:04:44;1.67;;;1.20;;
12437;SDS011;6283;51.330;12.374;2023-03-14T05:07:10;2.57;;;0.87;;
12437;SDS011;6283;51.330;12.374;2023-03-14T05:09:35;2.37;;;0.80;;
12437;SDS011;6283;51.330;12.374;2023-03-14T05:12:01;2.27;;;0.80;;
12437;SDS011;6283;51.330;12.374;2023-03-14T05:14:27;2.60;;;0.83;;
12437;SDS011;6283;51.330;12.374;2023-03-14T05:16:52;0.97;;;0.87;;
12437;SDS011;6283;51.330;12.374;2023-03-14T05:19:18;2.17;;;0.83;;
12437;SDS011;6283;51.330;12.374;2023-03-14T05:21:44;2.13;;;0.90;;
12437;SDS011;6283;51.330;12.374;2023-03-14T05:24:09;1.50;;;1.23;;
12437;SDS011;6283;51.330;12.374;2023-03-14T05:26:35;1.30;;;1.00;;
12437;SDS011;6283;51.330;12.374;2023-03-14T05:29:00;2.70;;;1.07;;
12437;SDS011;6283;51.330;12.374;2023-03-14T05:31:26;1.47;;;0.90;;
12437;SDS011;6283;51.330;12.374;2023-03-14T05:33:52;2.53;;;0.77;;
12437;SDS011;6283;51.330;12.374;2023-03-14T05:36:17;5.97;;;1.10;;
12437;SDS011;6283;51.330;12.374;2023-03-14T05:38:43;3.03;;;1.10;;
12437;SDS011;6283;51.330;12.374;2023-03-14T05:41:08;3.20;;;1.10;;
12437;SDS011;6283;51.330;12.374;2023-03-14T05:43:34;3.93;;;0.93;;
12437;SDS011;6283;51.330;12.374;2023-03-14T05:46:00;2.47;;;1.10;;
12437;SDS011;6283;51.330;12.374;2023-03-14T05:48:25;2.00;;;0.80;;
12437;SDS011;6283;51.330;12.374;2023-03-14T05:50:54;4.40;;;1.20;;
12437;SDS011;6283;51.330;12.374;2023-03-14T05:53:20;2.37;;;0.90;;
12437;SDS011;6283;51.330;12.374;2023-03-14T05:55:46;3.20;;;1.00;;
12437;SDS011;6283;51.330;12.374;2023-03-14T05:58:12;3.37;;;1.00;;
12437;SDS011;6283;51.330;12.374;2023-03-14T06:00:37;3.43;;;1.00;;
12437;SDS011;6283;51.330;12.374;2023-03-14T06:03:03;1.10;;;0.83;;
12437;SDS011;6283;51.330;12.374;2023-03-14T06:05:28;2.43;;;1.00;;
12437;SDS011;6283;51.330;12.374;2023-03-14T06:07:54;0.97;;;0.90;;
12437;SDS011;6283;51.330;12.374;2023-03-14T06:10:20;1.60;;;1.00;;
12437;SDS011;6283;51.330;12.374;2023-03-14T06:12:45;1.43;;;0.87;;
12437;SDS011;6283;51.330;12.374;2023-03-14T06:15:11;2.13;;;1.00;;
12437;SDS011;6283;51.330;12.374;2023-03-14T06:17:36;0.93;;;0.70;;
12437;SDS011;6283;51.330;12.374;2023-03-14T06:20:02;2.80;;;0.90;;
12437;SDS011;6283;51.330;12.374;2023-03-14T06:22:28;2.10;;;1.10;;
12437;SDS011;6283;51.330;12.374;2023-03-14T06:24:54;3.10;;;0.90;;
12437;SDS011;6283;51.330;12.374;2023-03-14T06:27:19;3.17;;;1.03;;
12437;SDS011;6283;51.330;12.374;2023-03-14T06:29:45;1.63;;;1.10;;
12437;SDS011;6283;51.330;12.374;2023-03-14T06:32:11;2.10;;;0.97;;
12437;SDS011;6283;51.330;12.374;2023-03-14T06:34:36;2.20;;;1.07;;
12437;SDS011;6283;51.330;12.374;2023-03-14T06:37:03;3.57;;;1.23;;
12437;SDS011;6283;51.330;12.374;2023-03-14T06:39:29;3.33;;;1.13;;
12437;SDS011;6283;51.330;12.374;2023-03-14T06:41:56;1.97;;;1.00;;
12437;SDS011;6283;51.330;12.374;2023-03-14T06:44:21;2.93;;;1.10;;
12437;SDS011;6283;51.330;12.374;2023-03-14T06:46:47;4.37;;;1.00;;
12437;SDS011;6283;51.330;12.374;2023-03-14T06:49:13;2.70;;;0.97;;
12437;SDS011;6283;51.330;12.374;2023-03-14T06:51:38;1.67;;;0.60;;
12437;SDS011;6283;51.330;12.374;2023-03-14T06:54:04;3.03;;;0.70;;
12437;SDS011;6283;51.330;12.374;2023-03-14T06:56:30;2.10;;;1.00;;
12437;SDS011;6283;51.330;12.374;2023-03-14T06:58:55;1.63;;;0.90;;
12437;SDS011;6283;51.330;12.374;2023-03-14T07:01:23;1.57;;;0.90;;
12437;SDS011;6283;51.330;12.374;2023-03-14T07:03:50;3.40;;;0.97;;
12437;SDS011;6283;51.330;12.374;2023-03-14T07:06:16;3.70;;;1.10;;
12437;SDS011;6283;51.330;12.374;2023-03-14T07:08:42;2.27;;;1.07;;
12437;SDS011;6283;51.330;12.374;2023-03-14T07:11:08;1.10;;;1.00;;
12437;SDS011;6283;51.330;12.374;2023-03-14T07:13:35;1.17;;;0.80;;
12437;SDS011;6283;51.330;12.374;2023-03-14T07:16:02;1.03;;;0.80;;
12437;SDS011;6283;51.330;12.374;2023-03-14T07:18:28;5.03;;;0.97;;
12437;SDS011;6283;51.330;12.374;2023-03-14T07:20:53;0.63;;;0.63;;
12437;SDS011;6283;51.330;12.374;2023-03-14T07:23:19;1.97;;;0.87;;
12437;SDS011;6283;51.330;12.374;2023-03-14T07:25:45;2.63;;;1.03;;
12437;SDS011;6283;51.330;12.374;2023-03-14T07:28:10;1.10;;;1.00;;
12437;SDS011;6283;51.330;12.374;2023-03-14T07:30:36;0.77;;;0.77;;
12437;SDS011;6283;51.330;12.374;2023-03-14T07:33:02;3.20;;;1.07;;
12437;SDS011;6283;51.330;12.374;2023-03-14T07:35:28;4.00;;;1.20;;
12437;SDS011;6283;51.330;12.374;2023-03-14T07:37:53;2.97;;;1.00;;
12437;SDS011;6283;51.330;12.374;2023-03-14T07:40:19;2.10;;;0.60;;
12437;SDS011;6283;51.330;12.374;2023-03-14T07:42:45;1.00;;;0.80;;
12437;SDS011;6283;51.330;12.374;2023-03-14T07:45:11;1.37;;;0.80;;
12437;SDS011;6283;51.330;12.374;2023-03-14T07:47:37;2.97;;;0.67;;
12437;SDS011;6283;51.330;12.374;2023-03-14T07:50:03;2.73;;;0.70;;
12437;SDS011;6283;51.330;12.374;2023-03-14T07:52:29;1.63;;;0.93;;
12437;SDS011;6283;51.330;12.374;2023-03-14T07:54:55;1.60;;;0.70;;
12437;SDS011;6283;51.330;12.374;2023-03-14T07:57:21;1.57;;;0.90;;
12437;SDS011;6283;51.330;12.374;2023-03-14T07:59:47;1.20;;;0.83;;
12437;SDS011;6283;51.330;12.374;2023-03-14T08:02:13;3.13;;;1.23;;
12437;SDS011;6283;51.330;12.374;2023-03-14T08:04:39;1.20;;;0.70;;
12437;SDS011;6283;51.330;12.374;2023-03-14T08:07:04;2.13;;;1.00;;
12437;SDS011;6283;51.330;12.374;2023-03-14T08:09:30;2.20;;;0.90;;
12437;SDS011;6283;51.330;12.374;2023-03-14T08:11:56;1.13;;;0.70;;
12437;SDS011;6283;51.330;12.374;2023-03-14T08:14:22;1.43;;;0.93;;
12437;SDS011;6283;51.330;12.374;2023-03-14T08:16:50;1.33;;;0.83;;
12437;SDS011;6283;51.330;12.374;2023-03-14T08:19:16;2.93;;;0.73;;
12437;SDS011;6283;51.330;12.374;2023-03-14T08:21:42;2.63;;;1.00;;
12437;SDS011;6283;51.330;12.374;2023-03-14T08:24:07;1.03;;;0.90;;
12437;SDS011;6283;51.330;12.374;2023-03-14T08:26:33;4.03;;;1.10;;
12437;SDS011;6283;51.330;12.374;2023-03-14T08:28:59;1.90;;;0.87;;
12437;SDS011;6283;51.330;12.374;2023-03-14T08:31:25;1.67;;;0.97;;
12437;SDS011;6283;51.330;12.374;2023-03-14T08:33:51;1.63;;;0.70;;
12437;SDS011;6283;51.330;12.374;2023-03-14T08:36:18;2.50;;;1.10;;
12437;SDS011;6283;51.330;12.374;2023-03-14T08:38:44;1.25;;;0.88;;
12437;SDS011;6283;51.330;12.374;2023-03-14T08:41:10;1.23;;;0.80;;
12437;SDS011;6283;51.330;12.374;2023-03-14T08:43:36;0.80;;;0.60;;
12437;SDS011;6283;51.330;12.374;2023-03-14T08:46:02;2.13;;;0.73;;
12437;SDS011;6283;51.330;12.374;2023-03-14T08:48:28;1.93;;;0.77;;
12437;SDS011;6283;51.330;12.374;2023-03-14T08:50:55;0.70;;;0.70;;
12437;SDS011;6283;51.330;12.374;2023-03-14T08:53:31;1.27;;;0.70;;
12437;SDS011;6283;51.330;12.374;2023-03-14T08:55:57;2.40;;;1.13;;
12437;SDS011;6283;51.330;12.374;2023-03-14T08:58:23;1.10;;;0.80;;
12437;SDS011;6283;51.330;12.374;2023-03-14T09:00:48;0.93;;;0.77;;
12437;SDS011;6283;51.330;12.374;2023-03-14T09:03:14;1.55;;;0.75;;
12437;SDS011;6283;51.330;12.374;2023-03-14T09:05:40;2.27;;;0.90;;
12437;SDS011;6283;51.330;12.374;2023-03-14T09:08:06;2.50;;;0.90;;
12437;SDS011;6283;51.330;12.374;2023-03-14T09:10:32;1.80;;;1.00;;
12437;SDS011;6283;51.330;12.374;2023-03-14T09:12:57;2.00;;;1.10;;
12437;SDS011;6283;51.330;12.374;2023-03-14T09:15:23;1.00;;;0.90;;
12437;SDS011;6283;51.330;12.374;2023-03-14T09:17:49;4.37;;;1.00;;
12437;SDS011;6283;51.330;12.374;2023-03-14T09:20:15;2.33;;;0.90;;
12437;SDS011;6283;51.330;12.374;2023-03-14T09:22:41;1.90;;;1.00;;
12437;SDS011;6283;51.330;12.374;2023-03-14T09:25:07;2.60;;;1.00;;
12437;SDS011;6283;51.330;12.374;2023-03-14T09:27:36;1.43;;;0.60;;
12437;SDS011;6283;51.330;12.374;2023-03-14T09:30:02;2.73;;;0.87;;
12437;SDS011;6283;51.330;12.374;2023-03-14T09:32:29;4.17;;;1.10;;
12437;SDS011;6283;51.330;12.374;2023-03-14T09:34:56;1.13;;;0.73;;
12437;SDS011;6283;51.330;12.374;2023-03-14T09:37:22;1.63;;;0.90;;
12437;SDS011;6283;51.330;12.374;2023-03-14T09:39:48;1.03;;;0.80;;
12437;SDS011;6283;51.330;12.374;2023-03-14T09:42:14;1.97;;;0.83;;
12437;SDS011;6283;51.330;12.374;2023-03-14T09:44:56;0.87;;;0.60;;
12437;SDS011;6283;51.330;12.374;2023-03-14T09:47:26;2.53;;;0.70;;
12437;SDS011;6283;51.330;12.374;2023-03-14T09:49:52;1.05;;;0.70;;
12437;SDS011;6283;51.330;12.374;2023-03-14T09:52:21;1.63;;;1.00;;
12437;SDS011;6283;51.330;12.374;2023-03-14T09:54:57;0.80;;;0.57;;
12437;SDS011;6283;51.330;12.374;2023-03-14T09:57:31;1.70;;;0.80;;
12437;SDS011;6283;51.330;12.374;2023-03-14T10:00:04;0.68;;;0.47;;
12437;SDS011;6283;51.330;12.374;2023-03-14T10:02:47;0.90;;;0.70;;
12437;SDS011;6283;51.330;12.374;2023-03-14T10:05:25;0.73;;;0.73;;
12437;SDS011;6283;51.330;12.374;2023-03-14T10:07:52;2.05;;;0.68;;
12437;SDS011;6283;51.330;12.374;2023-03-14T10:10:19;0.60;;;0.60;;
12437;SDS011;6283;51.330;12.374;2023-03-14T10:12:46;0.60;;;0.60;;
12437;SDS011;6283;51.330;12.374;2023-03-14T10:15:23;1.47;;;0.60;;
12437;SDS011;6283;51.330;12.374;2023-03-14T10:17:51;2.28;;;1.27;;
12437;SDS011;6283;51.330;12.374;2023-03-14T10:20:36;1.90;;;0.57;;
12437;SDS011;6283;51.330;12.374;2023-03-14T10:23:04;0.63;;;0.45;;
12437;SDS011;6283;51.330;12.374;2023-03-14T10:25:38;0.95;;;0.60;;
12437;SDS011;6283;51.330;12.374;2023-03-14T10:28:24;1.20;;;0.50;;
12437;SDS011;6283;51.330;12.374;2023-03-14T10:30:55;1.80;;;0.70;;
12437;SDS011;6283;51.330;12.374;2023-03-14T10:33:29;0.50;;;0.50;;
12437;SDS011;6283;51.330;12.374;2023-03-14T10:38:27;2.63;;;1.10;;
12437;SDS011;6283;51.330;12.374;2023-03-14T10:40:59;1.47;;;0.50;;
12437;SDS011;6283;51.330;12.374;2023-03-14T10:43:27;1.42;;;0.52;;
12437;SDS011;6283;51.330;12.374;2023-03-14T10:48:57;2.33;;;0.70;;
12437;SDS011;6283;51.330;12.374;2023-03-14T10:51:27;1.27;;;0.60;;
12437;SDS011;6283;51.330;12.374;2023-03-14T10:54:11;2.90;;;0.82;;
12437;SDS011;6283;51.330;12.374;2023-03-14T10:56:37;3.03;;;0.80;;
12437;SDS011;6283;51.330;12.374;2023-03-14T10:59:06;1.08;;;0.57;;
12437;SDS011;6283;51.330;12.374;2023-03-14T11:10:03;2.05;;;0.68;;
12437;SDS011;6283;51.330;12.374;2023-03-14T11:15:40;0.40;;;0.30;;
12437;SDS011;6283;51.330;12.374;2023-03-14T11:18:22;1.43;;;0.60;;
12437;SDS011;6283;51.330;12.374;2023-03-14T11:21:11;0.75;;;0.50;;
12437;SDS011;6283;51.330;12.374;2023-03-14T11:23:44;2.07;;;1.63;;
12437;SDS011;6283;51.330;12.374;2023-03-14T11:29:02;1.13;;;0.50;;
12437;SDS011;6283;51.330;12.374;2023-03-14T11:31:57;1.03;;;0.70;;
12437;SDS011;6283;51.330;12.374;2023-03-14T11:39:40;0.70;;;0.47;;
12437;SDS011;6283;51.330;12.374;2023-03-14T11:42:14;2.13;;;0.40;;
12437;SDS011;6283;51.330;12.374;2023-03-14T11:44:42;1.43;;;0.70;;
12437;SDS011;6283;51.330;12.374;2023-03-14T11:50:17;0.57;;;0.50;;
12437;SDS011;6283;51.330;12.374;2023-03-14T11:52:50;0.63;;;0.63;;
12437;SDS011;6283;51.330;12.374;2023-03-14T11:55:31;0.52;;;0.40;;
12437;SDS011;6283;51.330;12.374;2023-03-14T11:58:09;1.55;;;0.60;;
12437;SDS011;6283;51.330;12.374;2023-03-14T12:00:42;1.30;;;0.70;;
12437;SDS011;6283;51.330;12.374;2023-03-14T12:03:12;0.40;;;0.40;;
12437;SDS011;6283;51.330;12.374;2023-03-14T12:08:56;1.02;;;0.75;;
12437;SDS011;6283;51.330;12.374;2023-03-14T12:14:21;1.17;;;0.30;;
12437;SDS011;6283;51.330;12.374;2023-03-14T12:16:56;0.45;;;0.45;;
12437;SDS011;6283;51.330;12.374;2023-03-14T12:19:29;0.50;;;0.50;;
12437;SDS011;6283;51.330;12.374;2023-03-14T12:24:52;0.65;;;0.65;;
12437;SDS011;6283;51.330;12.374;2023-03-14T12:30:36;0.63;;;0.50;;
12437;SDS011;6283;51.330;12.374;2023-03-14T12:38:09;0.40;;;0.33;;
12437;SDS011;6283;51.330;12.374;2023-03-14T12:40:40;1.03;;;0.60;;
12437;SDS011;6283;51.330;12.374;2023-03-14T12:43:27;0.60;;;0.38;;
12437;SDS011;6283;51.330;12.374;2023-03-14T12:56:45;0.90;;;0.35;;
12437;SDS011;6283;51.330;12.374;2023-03-14T13:02:21;0.65;;;0.50;;
12437;SDS011;6283;51.330;12.374;2023-03-14T13:04:59;0.50;;;0.50;;
12437;SDS011;6283;51.330;12.374;2023-03-14T13:07:31;0.40;;;0.40;;
12437;SDS011;6283;51.330;12.374;2023-03-14T13:13:15;0.32;;;0.32;;
12437;SDS011;6283;51.330;12.374;2023-03-14T13:15:43;1.15;;;0.43;;
12437;SDS011;6283;51.330;12.374;2023-03-14T13:20:35;0.65;;;0.40;;
12437;SDS011;6283;51.330;12.374;2023-03-14T13:23:03;0.30;;;0.30;;
12437;SDS011;6283;51.330;12.374;2023-03-14T13:25:32;0.73;;;0.70;;
12437;SDS011;6283;51.330;12.374;2023-03-14T13:28:00;0.70;;;0.70;;
12437;SDS011;6283;51.330;12.374;2023-03-14T13:30:27;0.30;;;0.30;;
12437;SDS011;6283;51.330;12.374;2023-03-14T13:33:03;0.73;;;0.45;;
12437;SDS011;6283;51.330;12.374;2023-03-14T13:35:37;1.08;;;0.32;;
12437;SDS011;6283;51.330;12.374;2023-03-14T13:38:21;1.45;;;0.32;;
12437;SDS011;6283;51.330;12.374;2023-03-14T13:40:48;2.80;;;0.50;;
12437;SDS011;6283;51.330;12.374;2023-03-14T13:43:27;0.55;;;0.55;;
12437;SDS011;6283;51.330;12.374;2023-03-14T13:46:02;0.68;;;0.40;;
12437;SDS011;6283;51.330;12.374;2023-03-14T13:48:29;0.40;;;0.38;;
12437;SDS011;6283;51.330;12.374;2023-03-14T13:51:06;0.35;;;0.35;;
12437;SDS011;6283;51.330;12.374;2023-03-14T13:53:45;0.40;;;0.40;;
12437;SDS011;6283;51.330;12.374;2023-03-14T13:56:12;1.05;;;0.40;;
12437;SDS011;6283;51.330;12.374;2023-03-14T13:58:38;0.60;;;0.60;;
12437;SDS011;6283;51.330;12.374;2023-03-14T14:01:26;0.40;;;0.40;;
12437;SDS011;6283;51.330;12.374;2023-03-14T14:03:56;4.22;;;0.80;;
12437;SDS011;6283;51.330;12.374;2023-03-14T14:08:48;0.40;;;0.38;;
12437;SDS011;6283;51.330;12.374;2023-03-14T14:11:37;0.40;;;0.40;;
12437;SDS011;6283;51.330;12.374;2023-03-14T14:14:31;1.52;;;0.38;;
12437;SDS011;6283;51.330;12.374;2023-03-14T14:17:04;0.40;;;0.40;;
12437;SDS011;6283;51.330;12.374;2023-03-14T14:19:33;0.30;;;0.20;;
12437;SDS011;6283;51.330;12.374;2023-03-14T14:22:00;0.20;;;0.20;;
12437;SDS011;6283;51.330;12.374;2023-03-14T14:24:28;2.35;;;0.63;;
12437;SDS011;6283;51.330;12.374;2023-03-14T14:27:33;0.65;;;0.50;;
12437;SDS011;6283;51.330;12.374;2023-03-14T14:30:00;0.50;;;0.50;;
12437;SDS011;6283;51.330;12.374;2023-03-14T14:32:34;0.57;;;0.40;;
12437;SDS011;6283;51.330;12.374;2023-03-14T14:35:02;0.50;;;0.50;;
12437;SDS011;6283;51.330;12.374;2023-03-14T14:37:32;0.88;;;0.50;;
12437;SDS011;6283;51.330;12.374;2023-03-14T14:42:45;0.90;;;0.50;;
12437;SDS011;6283;51.330;12.374;2023-03-14T14:45:29;3.35;;;0.60;;
12437;SDS011;6283;51.330;12.374;2023-03-14T14:48:02;0.93;;;0.60;;
12437;SDS011;6283;51.330;12.374;2023-03-14T14:50:37;0.65;;;0.55;;
12437;SDS011;6283;51.330;12.374;2023-03-14T14:56:07;1.45;;;0.70;;
12437;SDS011;6283;51.330;12.374;2023-03-14T14:58:34;1.33;;;0.40;;
12437;SDS011;6283;51.330;12.374;2023-03-14T15:03:33;1.55;;;0.73;;
12437;SDS011;6283;51.330;12.374;2023-03-14T15:06:00;0.73;;;0.73;;
12437;SDS011;6283;51.330;12.374;2023-03-14T15:08:27;1.50;;;0.70;;
12437;SDS011;6283;51.330;12.374;2023-03-14T15:10:54;0.80;;;0.60;;
12437;SDS011;6283;51.330;12.374;2023-03-14T15:13:21;0.60;;;0.60;;
12437;SDS011;6283;51.330;12.374;2023-03-14T15:15:47;3.03;;;0.80;;
12437;SDS011;6283;51.330;12.374;2023-03-14T15:18:16;4.77;;;0.80;;
12437;SDS011;6283;51.330;12.374;2023-03-14T15:20:43;0.57;;;0.57;;
12437;SDS011;6283;51.330;12.374;2023-03-14T15:23:13;0.00;;;0.00;;
12437;SDS011;6283;51.330;12.374;2023-03-14T15:25:40;0.00;;;0.00;;
12437;SDS011;6283;51.330;12.374;2023-03-14T15:28:17;0.00;;;0.00;;
12437;SDS011;6283;51.330;12.374;2023-03-14T15:30:48;0.00;;;0.00;;
12437;SDS011;6283;51.330;12.374;2023-03-14T15:33:16;0.00;;;0.00;;
12437;SDS011;6283;51.330;12.374;2023-03-14T15:35:43;0.00;;;0.00;;
12437;SDS011;6283;51.330;12.374;2023-03-14T15:38:12;0.00;;;0.00;;
12437;SDS011;6283;51.330;12.374;2023-03-14T15:40:40;0.00;;;0.00;;
12437;SDS011;6283;51.330;12.374;2023-03-14T15:43:06;0.00;;;0.00;;
12437;SDS011;6283;51.330;12.374;2023-03-14T15:45:32;0.00;;;0.00;;
12437;SDS011;6283;51.330;12.374;2023-03-14T15:47:58;0.00;;;0.00;;
12437;SDS011;6283;51.330;12.374;2023-03-14T15:50:24;0.00;;;0.00;;
12437;SDS011;6283;51.330;12.374;2023-03-14T15:52:52;0.00;;;0.00;;
12437;SDS011;6283;51.330;12.374;2023-03-14T15:55:18;0.00;;;0.00;;
12437;SDS011;6283;51.330;12.374;2023-03-14T15:57:44;0.00;;;0.00;;
12437;SDS011;6283;51.330;12.374;2023-03-14T16:00:14;0.00;;;0.00;;
12437;SDS011;6283;51.330;12.374;2023-03-14T16:02:46;0.00;;;0.00;;
12437;SDS011;6283;51.330;12.374;2023-03-14T16:05:11;0.00;;;0.00;;
12437;SDS011;6283;51.330;12.374;2023-03-14T16:07:38;0.00;;;0.00;;
12437;SDS011;6283;51.330;12.374;2023-03-14T16:10:04;0.00;;;0.00;;
12437;SDS011;6283;51.330;12.374;2023-03-14T16:12:31;0.00;;;0.00;;
12437;SDS011;6283;51.330;12.374;2023-03-14T16:14:57;0.00;;;0.00;;
12437;SDS011;6283;51.330;12.374;2023-03-14T16:17:22;0.00;;;0.00;;
12437;SDS011;6283;51.330;12.374;2023-03-14T16:19:48;0.00;;;0.00;;
12437;SDS011;6283;51.330;12.374;2023-03-14T16:22:14;0.00;;;0.00;;